sensor_id;sensor_type;location;lat;lon;timestamp;P1;durP1;ratioP1;P2;durP2;ratioP2
66970;SDS011;53901;51.466;-2.588;2023-04-16T00:02:21;11.65;;;5.18;;
66970;SDS011;53901;51.466;-2.588;2023-04-16T00:04:48;16.13;;;5.32;;
66970;SDS011;53901;51.466;-2.588;2023-04-16T00:07:13;9.13;;;5.25;;
66970;SDS011;53901;51.466;-2.588;2023-04-16T00:09:38;9.32;;;5.00;;
66970;SDS011;53901;51.466;-2.588;2023-04-16T00:12:04;9.00;;;5.15;;
66970;SDS011;53901;51.466;-2.588;2023-04-16T00:14:30;9.52;;;4.93;;
66970;SDS011;53901;51.466;-2.588;2023-04-16T00:16:55;7.65;;;4.40;;
66970;SDS011;53901;51.466;-2.588;2023-04-16T00:19:21;9.93;;;5.05;;
66970;SDS011;53901;51.466;-2.588;2023-04-16T00:21:46;10.95;;;5.40;;
66970;SDS011;53901;51.466;-2.588;2023-04-16T00:24:11;15.80;;;5.35;;
66970;SDS011;53901;51.466;-2.588;2023-04-16T00:26:37;11.10;;;4.70;;
66970;SDS011;53901;51.466;-2.588;2023-04-16T00:29:02;11.35;;;4.95;;
66970;SDS011;53901;51.466;-2.588;2023-04-16T00:31:28;8.63;;;4.30;;
66970;SDS011;53901;51.466;-2.588;2023-04-16T00:33:54;10.02;;;4.03;;
66970;SDS011;53901;51.466;-2.588;2023-04-16T00:36:20;11.00;;;4.20;;
66970;SDS011;53901;51.466;-2.588;2023-04-16T00:38:46;12.60;;;5.07;;
66970;SDS011;53901;51.466;-2.588;2023-04-16T00:41:12;9.70;;;4.43;;
66970;SDS011;53901;51.466;-2.588;2023-04-16T00:43:37;13.52;;;5.05;;
66970;SDS011;53901;51.466;-2.588;2023-04-16T00:46:03;12.40;;;5.10;;
66970;SDS011;53901;51.466;-2.588;2023-04-16T00:48:31;10.57;;;4.65;;
66970;SDS011;53901;51.466;-2.588;2023-04-16T00:50:57;10.88;;;4.50;;
66970;SDS011;53901;51.466;-2.588;2023-04-16T00:53:24;8.40;;;4.30;;
66970;SDS011;53901;51.466;-2.588;2023-04-16T00:55:49;10.85;;;4.55;;
66970;SDS011;53901;51.466;-2.588;2023-04-16T00:58:15;10.13;;;4.32;;
66970;SDS011;53901;51.466;-2.588;2023-04-16T01:00:40;9.07;;;4.53;;
66970;SDS011;53901;51.466;-2.588;2023-04-16T01:03:06;13.65;;;4.38;;
66970;SDS011;53901;51.466;-2.588;2023-04-16T01:05:31;9.20;;;4.07;;
66970;SDS011;53901;51.466;-2.588;2023-04-16T01:07:57;10.45;;;5.00;;
66970;SDS011;53901;51.466;-2.588;2023-04-16T01:10:24;9.70;;;4.32;;
66970;SDS011;53901;51.466;-2.588;2023-04-16T01:12:49;9.27;;;4.50;;
66970;SDS011;53901;51.466;-2.588;2023-04-16T01:15:14;12.13;;;4.32;;
66970;SDS011;53901;51.466;-2.588;2023-04-16T01:17:40;9.30;;;4.00;;
66970;SDS011;53901;51.466;-2.588;2023-04-16T01:20:05;12.07;;;4.18;;
66970;SDS011;53901;51.466;-2.588;2023-04-16T01:22:31;9.77;;;4.10;;
66970;SDS011;53901;51.466;-2.588;2023-04-16T01:24:56;6.63;;;4.00;;
66970;SDS011;53901;51.466;-2.588;2023-04-16T01:27:22;10.05;;;4.03;;
66970;SDS011;53901;51.466;-2.588;2023-04-16T01:29:47;9.10;;;4.13;;
66970;SDS011;53901;51.466;-2.588;2023-04-16T01:32:13;9.18;;;4.43;;
66970;SDS011;53901;51.466;-2.588;2023-04-16T01:34:39;7.75;;;4.43;;
66970;SDS011;53901;51.466;-2.588;2023-04-16T01:37:04;9.63;;;4.30;;
66970;SDS011;53901;51.466;-2.588;2023-04-16T01:39:29;11.93;;;4.80;;
66970;SDS011;53901;51.466;-2.588;2023-04-16T01:41:55;8.50;;;4.90;;
66970;SDS011;53901;51.466;-2.588;2023-04-16T01:44:21;11.20;;;5.13;;
66970;SDS011;53901;51.466;-2.588;2023-04-16T01:46:47;11.77;;;4.90;;
66970;SDS011;53901;51.466;-2.588;2023-04-16T01:49:12;8.20;;;4.22;;
66970;SDS011;53901;51.466;-2.588;2023-04-16T01:51:37;11.60;;;4.78;;
66970;SDS011;53901;51.466;-2.588;2023-04-16T01:54:03;15.05;;;4.28;;
66970;SDS011;53901;51.466;-2.588;2023-04-16T01:56:28;9.90;;;4.63;;
66970;SDS011;53901;51.466;-2.588;2023-04-16T01:58:54;11.38;;;4.60;;
66970;SDS011;53901;51.466;-2.588;2023-04-16T02:01:19;10.55;;;3.92;;
66970;SDS011;53901;51.466;-2.588;2023-04-16T02:03:45;11.40;;;4.40;;
66970;SDS011;53901;51.466;-2.588;2023-04-16T02:06:10;12.05;;;4.38;;
66970;SDS011;53901;51.466;-2.588;2023-04-16T02:08:36;7.47;;;3.63;;
66970;SDS011;53901;51.466;-2.588;2023-04-16T02:11:01;10.48;;;4.55;;
66970;SDS011;53901;51.466;-2.588;2023-04-16T02:13:26;12.52;;;3.97;;
66970;SDS011;53901;51.466;-2.588;2023-04-16T02:15:52;9.48;;;4.18;;
66970;SDS011;53901;51.466;-2.588;2023-04-16T02:18:17;7.85;;;4.00;;
66970;SDS011;53901;51.466;-2.588;2023-04-16T02:20:45;9.88;;;4.25;;
66970;SDS011;53901;51.466;-2.588;2023-04-16T02:23:11;8.90;;;4.03;;
66970;SDS011;53901;51.466;-2.588;2023-04-16T02:25:43;8.52;;;4.28;;
66970;SDS011;53901;51.466;-2.588;2023-04-16T02:28:10;7.88;;;4.20;;
66970;SDS011;53901;51.466;-2.588;2023-04-16T02:30:37;8.02;;;4.20;;
66970;SDS011;53901;51.466;-2.588;2023-04-16T02:33:03;7.22;;;4.10;;
66970;SDS011;53901;51.466;-2.588;2023-04-16T02:35:31;8.30;;;4.10;;
66970;SDS011;53901;51.466;-2.588;2023-04-16T02:37:57;9.85;;;4.13;;
66970;SDS011;53901;51.466;-2.588;2023-04-16T02:40:23;7.93;;;4.15;;
66970;SDS011;53901;51.466;-2.588;2023-04-16T02:42:48;10.52;;;4.45;;
66970;SDS011;53901;51.466;-2.588;2023-04-16T02:45:14;10.75;;;4.75;;
66970;SDS011;53901;51.466;-2.588;2023-04-16T02:47:39;8.13;;;4.60;;
66970;SDS011;53901;51.466;-2.588;2023-04-16T02:50:05;9.52;;;4.38;;
66970;SDS011;53901;51.466;-2.588;2023-04-16T02:52:31;11.70;;;4.82;;
66970;SDS011;53901;51.466;-2.588;2023-04-16T02:54:57;8.43;;;4.47;;
66970;SDS011;53901;51.466;-2.588;2023-04-16T02:57:23;12.55;;;5.13;;
66970;SDS011;53901;51.466;-2.588;2023-04-16T02:59:48;10.57;;;4.80;;
66970;SDS011;53901;51.466;-2.588;2023-04-16T03:02:13;8.00;;;4.63;;
66970;SDS011;53901;51.466;-2.588;2023-04-16T03:04:40;10.48;;;4.70;;
66970;SDS011;53901;51.466;-2.588;2023-04-16T03:07:05;16.55;;;5.07;;
66970;SDS011;53901;51.466;-2.588;2023-04-16T03:09:30;13.35;;;4.82;;
66970;SDS011;53901;51.466;-2.588;2023-04-16T03:11:56;10.57;;;4.88;;
66970;SDS011;53901;51.466;-2.588;2023-04-16T03:14:21;8.68;;;4.47;;
66970;SDS011;53901;51.466;-2.588;2023-04-16T03:16:47;8.35;;;4.30;;
66970;SDS011;53901;51.466;-2.588;2023-04-16T03:19:12;9.05;;;4.20;;
66970;SDS011;53901;51.466;-2.588;2023-04-16T03:21:37;11.93;;;4.40;;
66970;SDS011;53901;51.466;-2.588;2023-04-16T03:24:03;10.23;;;4.43;;
66970;SDS011;53901;51.466;-2.588;2023-04-16T03:26:28;14.23;;;4.80;;
66970;SDS011;53901;51.466;-2.588;2023-04-16T03:28:53;10.20;;;4.60;;
66970;SDS011;53901;51.466;-2.588;2023-04-16T03:31:19;10.63;;;4.68;;
66970;SDS011;53901;51.466;-2.588;2023-04-16T03:33:44;10.85;;;4.32;;
66970;SDS011;53901;51.466;-2.588;2023-04-16T03:36:10;11.02;;;4.50;;
66970;SDS011;53901;51.466;-2.588;2023-04-16T03:38:35;10.10;;;4.35;;
66970;SDS011;53901;51.466;-2.588;2023-04-16T03:41:01;14.50;;;5.03;;
66970;SDS011;53901;51.466;-2.588;2023-04-16T03:43:26;8.05;;;4.53;;
66970;SDS011;53901;51.466;-2.588;2023-04-16T03:45:52;11.77;;;5.03;;
66970;SDS011;53901;51.466;-2.588;2023-04-16T03:48:17;10.60;;;4.45;;
66970;SDS011;53901;51.466;-2.588;2023-04-16T03:50:45;10.30;;;4.53;;
66970;SDS011;53901;51.466;-2.588;2023-04-16T03:53:13;10.95;;;5.15;;
66970;SDS011;53901;51.466;-2.588;2023-04-16T03:55:40;16.83;;;5.20;;
66970;SDS011;53901;51.466;-2.588;2023-04-16T03:58:05;14.52;;;5.63;;
66970;SDS011;53901;51.466;-2.588;2023-04-16T04:00:31;12.93;;;6.20;;
66970;SDS011;53901;51.466;-2.588;2023-04-16T04:02:56;12.00;;;6.57;;
66970;SDS011;53901;51.466;-2.588;2023-04-16T04:05:21;10.85;;;6.57;;
66970;SDS011;53901;51.466;-2.588;2023-04-16T04:07:47;16.38;;;7.63;;
66970;SDS011;53901;51.466;-2.588;2023-04-16T04:10:12;18.13;;;8.02;;
66970;SDS011;53901;51.466;-2.588;2023-04-16T04:12:38;15.43;;;7.38;;
66970;SDS011;53901;51.466;-2.588;2023-04-16T04:15:03;13.95;;;7.25;;
66970;SDS011;53901;51.466;-2.588;2023-04-16T04:17:29;14.02;;;7.07;;
66970;SDS011;53901;51.466;-2.588;2023-04-16T04:19:54;12.20;;;6.22;;
66970;SDS011;53901;51.466;-2.588;2023-04-16T04:22:23;15.73;;;6.30;;
66970;SDS011;53901;51.466;-2.588;2023-04-16T04:24:48;11.55;;;5.88;;
66970;SDS011;53901;51.466;-2.588;2023-04-16T04:27:14;11.00;;;6.15;;
66970;SDS011;53901;51.466;-2.588;2023-04-16T04:29:39;12.25;;;5.80;;
66970;SDS011;53901;51.466;-2.588;2023-04-16T04:32:04;10.85;;;5.43;;
66970;SDS011;53901;51.466;-2.588;2023-04-16T04:34:30;9.13;;;5.00;;
66970;SDS011;53901;51.466;-2.588;2023-04-16T04:36:55;12.45;;;5.18;;
66970;SDS011;53901;51.466;-2.588;2023-04-16T04:39:21;9.35;;;4.82;;
66970;SDS011;53901;51.466;-2.588;2023-04-16T04:41:46;11.95;;;4.85;;
66970;SDS011;53901;51.466;-2.588;2023-04-16T04:44:12;10.63;;;4.40;;
66970;SDS011;53901;51.466;-2.588;2023-04-16T04:46:38;16.55;;;4.75;;
66970;SDS011;53901;51.466;-2.588;2023-04-16T04:49:04;10.30;;;4.32;;
66970;SDS011;53901;51.466;-2.588;2023-04-16T04:51:29;11.55;;;4.07;;
66970;SDS011;53901;51.466;-2.588;2023-04-16T04:53:55;8.75;;;3.75;;
66970;SDS011;53901;51.466;-2.588;2023-04-16T04:56:20;11.32;;;3.67;;
66970;SDS011;53901;51.466;-2.588;2023-04-16T04:58:45;7.57;;;3.70;;
66970;SDS011;53901;51.466;-2.588;2023-04-16T05:01:11;13.15;;;4.03;;
66970;SDS011;53901;51.466;-2.588;2023-04-16T05:03:36;10.32;;;3.80;;
66970;SDS011;53901;51.466;-2.588;2023-04-16T05:06:02;10.95;;;4.57;;
66970;SDS011;53901;51.466;-2.588;2023-04-16T05:08:27;23.65;;;5.20;;
66970;SDS011;53901;51.466;-2.588;2023-04-16T05:10:52;10.63;;;4.50;;
66970;SDS011;53901;51.466;-2.588;2023-04-16T05:13:18;12.50;;;4.90;;
66970;SDS011;53901;51.466;-2.588;2023-04-16T05:15:43;13.38;;;6.47;;
66970;SDS011;53901;51.466;-2.588;2023-04-16T05:18:09;10.40;;;5.70;;
66970;SDS011;53901;51.466;-2.588;2023-04-16T05:20:35;13.90;;;5.30;;
66970;SDS011;53901;51.466;-2.588;2023-04-16T05:23:01;9.48;;;5.25;;
66970;SDS011;53901;51.466;-2.588;2023-04-16T05:25:27;14.05;;;5.90;;
66970;SDS011;53901;51.466;-2.588;2023-04-16T05:27:52;11.70;;;5.47;;
66970;SDS011;53901;51.466;-2.588;2023-04-16T05:30:18;11.63;;;5.80;;
66970;SDS011;53901;51.466;-2.588;2023-04-16T05:32:43;12.88;;;5.20;;
66970;SDS011;53901;51.466;-2.588;2023-04-16T05:35:08;12.30;;;5.30;;
66970;SDS011;53901;51.466;-2.588;2023-04-16T05:37:34;13.90;;;5.10;;
66970;SDS011;53901;51.466;-2.588;2023-04-16T05:39:59;9.85;;;5.15;;
66970;SDS011;53901;51.466;-2.588;2023-04-16T05:42:25;11.85;;;5.05;;
66970;SDS011;53901;51.466;-2.588;2023-04-16T05:44:50;8.48;;;4.63;;
66970;SDS011;53901;51.466;-2.588;2023-04-16T05:47:16;13.20;;;4.97;;
66970;SDS011;53901;51.466;-2.588;2023-04-16T05:49:41;12.63;;;4.68;;
66970;SDS011;53901;51.466;-2.588;2023-04-16T05:52:07;13.20;;;4.60;;
66970;SDS011;53901;51.466;-2.588;2023-04-16T05:54:32;11.82;;;4.85;;
66970;SDS011;53901;51.466;-2.588;2023-04-16T05:56:58;12.32;;;4.78;;
66970;SDS011;53901;51.466;-2.588;2023-04-16T05:59:25;9.50;;;4.28;;
66970;SDS011;53901;51.466;-2.588;2023-04-16T06:01:50;10.02;;;4.47;;
66970;SDS011;53901;51.466;-2.588;2023-04-16T06:04:16;9.15;;;4.03;;
66970;SDS011;53901;51.466;-2.588;2023-04-16T06:06:41;8.07;;;4.20;;
66970;SDS011;53901;51.466;-2.588;2023-04-16T06:09:06;11.02;;;4.28;;
66970;SDS011;53901;51.466;-2.588;2023-04-16T06:11:32;8.90;;;4.15;;
66970;SDS011;53901;51.466;-2.588;2023-04-16T06:13:57;7.95;;;4.07;;
66970;SDS011;53901;51.466;-2.588;2023-04-16T06:16:22;12.30;;;4.07;;
66970;SDS011;53901;51.466;-2.588;2023-04-16T06:18:48;10.00;;;4.00;;
66970;SDS011;53901;51.466;-2.588;2023-04-16T06:21:13;5.75;;;3.80;;
66970;SDS011;53901;51.466;-2.588;2023-04-16T06:23:39;8.35;;;3.55;;
66970;SDS011;53901;51.466;-2.588;2023-04-16T06:26:05;8.25;;;3.88;;
66970;SDS011;53901;51.466;-2.588;2023-04-16T06:28:30;10.38;;;3.80;;
66970;SDS011;53901;51.466;-2.588;2023-04-16T06:30:55;6.72;;;3.55;;
66970;SDS011;53901;51.466;-2.588;2023-04-16T06:33:21;6.80;;;3.30;;
66970;SDS011;53901;51.466;-2.588;2023-04-16T06:35:46;6.28;;;3.42;;
66970;SDS011;53901;51.466;-2.588;2023-04-16T06:38:12;9.38;;;3.70;;
66970;SDS011;53901;51.466;-2.588;2023-04-16T06:40:37;5.93;;;3.50;;
66970;SDS011;53901;51.466;-2.588;2023-04-16T06:43:03;8.45;;;3.80;;
66970;SDS011;53901;51.466;-2.588;2023-04-16T06:45:28;9.52;;;3.60;;
66970;SDS011;53901;51.466;-2.588;2023-04-16T06:47:53;10.32;;;3.70;;
66970;SDS011;53901;51.466;-2.588;2023-04-16T06:50:19;10.98;;;3.58;;
66970;SDS011;53901;51.466;-2.588;2023-04-16T06:52:45;8.85;;;3.50;;
66970;SDS011;53901;51.466;-2.588;2023-04-16T06:55:10;13.20;;;3.30;;
66970;SDS011;53901;51.466;-2.588;2023-04-16T06:57:35;7.57;;;3.47;;
66970;SDS011;53901;51.466;-2.588;2023-04-16T07:00:01;8.50;;;4.00;;
66970;SDS011;53901;51.466;-2.588;2023-04-16T07:02:28;7.43;;;3.50;;
66970;SDS011;53901;51.466;-2.588;2023-04-16T07:04:54;7.22;;;3.10;;
66970;SDS011;53901;51.466;-2.588;2023-04-16T07:07:19;10.48;;;4.03;;
66970;SDS011;53901;51.466;-2.588;2023-04-16T07:09:45;8.73;;;3.65;;
66970;SDS011;53901;51.466;-2.588;2023-04-16T07:12:10;8.48;;;3.58;;
66970;SDS011;53901;51.466;-2.588;2023-04-16T07:14:36;8.90;;;4.03;;
66970;SDS011;53901;51.466;-2.588;2023-04-16T07:17:01;6.65;;;3.75;;
66970;SDS011;53901;51.466;-2.588;2023-04-16T07:19:26;9.60;;;4.20;;
66970;SDS011;53901;51.466;-2.588;2023-04-16T07:21:56;7.97;;;3.90;;
66970;SDS011;53901;51.466;-2.588;2023-04-16T07:24:21;12.75;;;4.40;;
66970;SDS011;53901;51.466;-2.588;2023-04-16T07:26:47;11.23;;;4.45;;
66970;SDS011;53901;51.466;-2.588;2023-04-16T07:29:12;9.07;;;4.22;;
66970;SDS011;53901;51.466;-2.588;2023-04-16T07:31:37;11.35;;;4.15;;
66970;SDS011;53901;51.466;-2.588;2023-04-16T07:34:03;10.70;;;3.95;;
66970;SDS011;53901;51.466;-2.588;2023-04-16T07:36:28;10.43;;;4.07;;
66970;SDS011;53901;51.466;-2.588;2023-04-16T07:38:54;13.65;;;3.88;;
66970;SDS011;53901;51.466;-2.588;2023-04-16T07:41:20;10.00;;;4.47;;
66970;SDS011;53901;51.466;-2.588;2023-04-16T07:43:45;10.80;;;4.40;;
66970;SDS011;53901;51.466;-2.588;2023-04-16T07:46:11;12.48;;;5.15;;
66970;SDS011;53901;51.466;-2.588;2023-04-16T07:48:39;10.80;;;4.90;;
66970;SDS011;53901;51.466;-2.588;2023-04-16T07:51:04;14.77;;;4.82;;
66970;SDS011;53901;51.466;-2.588;2023-04-16T07:53:30;9.57;;;4.78;;
66970;SDS011;53901;51.466;-2.588;2023-04-16T07:55:58;16.25;;;4.80;;
66970;SDS011;53901;51.466;-2.588;2023-04-16T07:58:25;13.18;;;5.15;;
66970;SDS011;53901;51.466;-2.588;2023-04-16T08:00:51;12.18;;;4.88;;
66970;SDS011;53901;51.466;-2.588;2023-04-16T08:03:16;9.13;;;4.40;;
66970;SDS011;53901;51.466;-2.588;2023-04-16T08:05:42;8.15;;;3.50;;
66970;SDS011;53901;51.466;-2.588;2023-04-16T08:08:07;8.23;;;3.33;;
66970;SDS011;53901;51.466;-2.588;2023-04-16T08:10:32;7.40;;;2.40;;
66970;SDS011;53901;51.466;-2.588;2023-04-16T08:13:01;9.82;;;3.47;;
66970;SDS011;53901;51.466;-2.588;2023-04-16T08:15:26;5.60;;;2.38;;
66970;SDS011;53901;51.466;-2.588;2023-04-16T08:17:52;6.75;;;2.10;;
66970;SDS011;53901;51.466;-2.588;2023-04-16T08:20:17;6.85;;;2.30;;
66970;SDS011;53901;51.466;-2.588;2023-04-16T08:22:43;6.20;;;1.88;;
66970;SDS011;53901;51.466;-2.588;2023-04-16T08:25:09;2.80;;;1.80;;
66970;SDS011;53901;51.466;-2.588;2023-04-16T08:27:35;4.95;;;1.95;;
66970;SDS011;53901;51.466;-2.588;2023-04-16T08:30:00;4.28;;;1.70;;
66970;SDS011;53901;51.466;-2.588;2023-04-16T08:32:26;4.82;;;1.95;;
66970;SDS011;53901;51.466;-2.588;2023-04-16T08:34:51;4.65;;;1.70;;
66970;SDS011;53901;51.466;-2.588;2023-04-16T08:37:16;7.25;;;2.17;;
66970;SDS011;53901;51.466;-2.588;2023-04-16T08:39:42;6.78;;;2.10;;
66970;SDS011;53901;51.466;-2.588;2023-04-16T08:42:12;6.63;;;2.00;;
66970;SDS011;53901;51.466;-2.588;2023-04-16T08:44:44;8.68;;;2.13;;
66970;SDS011;53901;51.466;-2.588;2023-04-16T08:47:11;5.43;;;2.05;;
66970;SDS011;53901;51.466;-2.588;2023-04-16T08:49:36;9.60;;;2.30;;
66970;SDS011;53901;51.466;-2.588;2023-04-16T08:52:08;5.97;;;2.15;;
66970;SDS011;53901;51.466;-2.588;2023-04-16T08:57:04;6.78;;;2.10;;
66970;SDS011;53901;51.466;-2.588;2023-04-16T08:59:31;4.95;;;1.83;;
66970;SDS011;53901;51.466;-2.588;2023-04-16T09:01:57;8.38;;;2.58;;
66970;SDS011;53901;51.466;-2.588;2023-04-16T09:04:26;8.43;;;2.10;;
66970;SDS011;53901;51.466;-2.588;2023-04-16T09:06:53;9.55;;;2.42;;
66970;SDS011;53901;51.466;-2.588;2023-04-16T09:09:19;7.78;;;2.22;;
66970;SDS011;53901;51.466;-2.588;2023-04-16T09:11:48;7.53;;;2.88;;
66970;SDS011;53901;51.466;-2.588;2023-04-16T09:14:15;12.23;;;3.28;;
66970;SDS011;53901;51.466;-2.588;2023-04-16T09:16:41;7.95;;;2.80;;
66970;SDS011;53901;51.466;-2.588;2023-04-16T09:19:08;7.38;;;2.40;;
66970;SDS011;53901;51.466;-2.588;2023-04-16T09:21:33;6.18;;;1.67;;
66970;SDS011;53901;51.466;-2.588;2023-04-16T09:23:59;10.25;;;2.92;;
66970;SDS011;53901;51.466;-2.588;2023-04-16T09:26:24;7.03;;;2.20;;
66970;SDS011;53901;51.466;-2.588;2023-04-16T09:28:50;6.55;;;1.80;;
66970;SDS011;53901;51.466;-2.588;2023-04-16T09:31:17;5.22;;;1.90;;
66970;SDS011;53901;51.466;-2.588;2023-04-16T09:33:43;10.07;;;2.53;;
66970;SDS011;53901;51.466;-2.588;2023-04-16T09:36:25;5.50;;;1.80;;
66970;SDS011;53901;51.466;-2.588;2023-04-16T09:38:51;10.27;;;2.92;;
66970;SDS011;53901;51.466;-2.588;2023-04-16T09:41:18;10.57;;;2.38;;
66970;SDS011;53901;51.466;-2.588;2023-04-16T09:43:48;5.60;;;2.15;;
66970;SDS011;53901;51.466;-2.588;2023-04-16T09:46:24;6.20;;;1.88;;
66970;SDS011;53901;51.466;-2.588;2023-04-16T09:48:54;5.55;;;2.00;;
66970;SDS011;53901;51.466;-2.588;2023-04-16T09:51:20;8.02;;;2.75;;
66970;SDS011;53901;51.466;-2.588;2023-04-16T09:53:45;5.32;;;1.40;;
66970;SDS011;53901;51.466;-2.588;2023-04-16T09:56:11;6.22;;;1.75;;
66970;SDS011;53901;51.466;-2.588;2023-04-16T09:58:37;5.35;;;1.67;;
66970;SDS011;53901;51.466;-2.588;2023-04-16T10:01:04;8.02;;;1.40;;
66970;SDS011;53901;51.466;-2.588;2023-04-16T10:03:35;3.83;;;1.30;;
66970;SDS011;53901;51.466;-2.588;2023-04-16T10:06:06;7.03;;;1.50;;
66970;SDS011;53901;51.466;-2.588;2023-04-16T10:08:33;5.47;;;2.40;;
66970;SDS011;53901;51.466;-2.588;2023-04-16T10:11:00;6.07;;;1.58;;
66970;SDS011;53901;51.466;-2.588;2023-04-16T10:13:26;6.28;;;1.70;;
66970;SDS011;53901;51.466;-2.588;2023-04-16T10:15:53;7.55;;;1.60;;
66970;SDS011;53901;51.466;-2.588;2023-04-16T10:18:19;5.05;;;1.67;;
66970;SDS011;53901;51.466;-2.588;2023-04-16T10:20:45;8.05;;;2.13;;
66970;SDS011;53901;51.466;-2.588;2023-04-16T10:23:11;9.82;;;2.10;;
66970;SDS011;53901;51.466;-2.588;2023-04-16T10:25:36;5.20;;;1.45;;
66970;SDS011;53901;51.466;-2.588;2023-04-16T10:28:02;3.47;;;1.50;;
66970;SDS011;53901;51.466;-2.588;2023-04-16T10:30:28;6.18;;;1.55;;
66970;SDS011;53901;51.466;-2.588;2023-04-16T10:32:54;3.67;;;1.20;;
66970;SDS011;53901;51.466;-2.588;2023-04-16T10:35:19;4.90;;;1.38;;
66970;SDS011;53901;51.466;-2.588;2023-04-16T10:37:45;7.03;;;1.70;;
66970;SDS011;53901;51.466;-2.588;2023-04-16T10:40:24;4.68;;;1.27;;
66970;SDS011;53901;51.466;-2.588;2023-04-16T10:42:54;8.82;;;2.42;;
66970;SDS011;53901;51.466;-2.588;2023-04-16T10:45:28;6.13;;;2.10;;
66970;SDS011;53901;51.466;-2.588;2023-04-16T10:47:55;10.65;;;1.60;;
66970;SDS011;53901;51.466;-2.588;2023-04-16T10:50:22;13.57;;;4.25;;
66970;SDS011;53901;51.466;-2.588;2023-04-16T10:52:47;7.25;;;2.80;;
66970;SDS011;53901;51.466;-2.588;2023-04-16T10:55:16;8.25;;;1.60;;
66970;SDS011;53901;51.466;-2.588;2023-04-16T10:57:41;6.28;;;1.60;;
66970;SDS011;53901;51.466;-2.588;2023-04-16T11:00:28;7.32;;;1.67;;
66970;SDS011;53901;51.466;-2.588;2023-04-16T11:02:55;13.77;;;7.82;;
66970;SDS011;53901;51.466;-2.588;2023-04-16T11:05:21;5.03;;;1.40;;
66970;SDS011;53901;51.466;-2.588;2023-04-16T11:07:47;4.05;;;1.48;;
66970;SDS011;53901;51.466;-2.588;2023-04-16T11:10:13;3.90;;;1.77;;
66970;SDS011;53901;51.466;-2.588;2023-04-16T11:12:39;10.30;;;1.60;;
66970;SDS011;53901;51.466;-2.588;2023-04-16T11:17:36;4.22;;;1.48;;
66970;SDS011;53901;51.466;-2.588;2023-04-16T11:20:05;8.20;;;1.70;;
66970;SDS011;53901;51.466;-2.588;2023-04-16T11:22:33;5.60;;;1.77;;
66970;SDS011;53901;51.466;-2.588;2023-04-16T11:25:00;4.85;;;1.77;;
66970;SDS011;53901;51.466;-2.588;2023-04-16T11:27:25;6.80;;;2.08;;
66970;SDS011;53901;51.466;-2.588;2023-04-16T11:29:58;4.25;;;1.70;;
66970;SDS011;53901;51.466;-2.588;2023-04-16T11:32:36;6.25;;;2.38;;
66970;SDS011;53901;51.466;-2.588;2023-04-16T11:35:02;6.57;;;2.40;;
66970;SDS011;53901;51.466;-2.588;2023-04-16T11:37:36;6.68;;;1.80;;
66970;SDS011;53901;51.466;-2.588;2023-04-16T11:40:02;6.78;;;2.63;;
66970;SDS011;53901;51.466;-2.588;2023-04-16T11:42:30;6.43;;;2.20;;
66970;SDS011;53901;51.466;-2.588;2023-04-16T11:44:57;7.75;;;1.80;;
66970;SDS011;53901;51.466;-2.588;2023-04-16T11:47:25;5.20;;;1.42;;
66970;SDS011;53901;51.466;-2.588;2023-04-16T11:49:50;6.07;;;1.67;;
66970;SDS011;53901;51.466;-2.588;2023-04-16T11:52:29;3.28;;;1.33;;
66970;SDS011;53901;51.466;-2.588;2023-04-16T11:54:56;6.00;;;1.70;;
66970;SDS011;53901;51.466;-2.588;2023-04-16T11:57:25;5.60;;;2.03;;
66970;SDS011;53901;51.466;-2.588;2023-04-16T11:59:54;5.35;;;1.63;;
66970;SDS011;53901;51.466;-2.588;2023-04-16T12:02:33;5.35;;;1.67;;
66970;SDS011;53901;51.466;-2.588;2023-04-16T12:05:02;5.18;;;1.80;;
66970;SDS011;53901;51.466;-2.588;2023-04-16T12:07:29;6.15;;;1.90;;
66970;SDS011;53901;51.466;-2.588;2023-04-16T12:10:07;8.65;;;1.63;;
66970;SDS011;53901;51.466;-2.588;2023-04-16T12:12:32;8.20;;;2.90;;
66970;SDS011;53901;51.466;-2.588;2023-04-16T12:14:59;8.45;;;2.33;;
66970;SDS011;53901;51.466;-2.588;2023-04-16T12:17:29;3.60;;;1.45;;
66970;SDS011;53901;51.466;-2.588;2023-04-16T12:19:56;6.60;;;1.83;;
66970;SDS011;53901;51.466;-2.588;2023-04-16T12:22:30;8.50;;;1.95;;
66970;SDS011;53901;51.466;-2.588;2023-04-16T12:24:59;7.47;;;1.90;;
66970;SDS011;53901;51.466;-2.588;2023-04-16T12:30:26;6.55;;;1.77;;
66970;SDS011;53901;51.466;-2.588;2023-04-16T12:35:42;6.90;;;1.83;;
66970;SDS011;53901;51.466;-2.588;2023-04-16T12:38:09;9.80;;;2.50;;
66970;SDS011;53901;51.466;-2.588;2023-04-16T12:40:35;7.68;;;2.10;;
66970;SDS011;53901;51.466;-2.588;2023-04-16T12:43:01;7.70;;;2.85;;
66970;SDS011;53901;51.466;-2.588;2023-04-16T12:45:26;11.02;;;4.28;;
66970;SDS011;53901;51.466;-2.588;2023-04-16T12:47:52;8.27;;;2.53;;
66970;SDS011;53901;51.466;-2.588;2023-04-16T12:50:17;8.98;;;2.42;;
66970;SDS011;53901;51.466;-2.588;2023-04-16T12:52:43;5.20;;;1.95;;
66970;SDS011;53901;51.466;-2.588;2023-04-16T12:55:08;6.85;;;2.50;;
66970;SDS011;53901;51.466;-2.588;2023-04-16T12:57:34;7.85;;;1.90;;
66970;SDS011;53901;51.466;-2.588;2023-04-16T13:00:00;6.50;;;2.70;;
66970;SDS011;53901;51.466;-2.588;2023-04-16T13:02:25;7.70;;;1.90;;
66970;SDS011;53901;51.466;-2.588;2023-04-16T13:04:51;6.70;;;2.58;;
66970;SDS011;53901;51.466;-2.588;2023-04-16T13:07:17;5.38;;;1.60;;
66970;SDS011;53901;51.466;-2.588;2023-04-16T13:09:43;9.13;;;2.28;;
66970;SDS011;53901;51.466;-2.588;2023-04-16T13:12:08;8.48;;;1.60;;
66970;SDS011;53901;51.466;-2.588;2023-04-16T13:14:34;7.18;;;1.35;;
66970;SDS011;53901;51.466;-2.588;2023-04-16T13:16:59;6.97;;;1.58;;
66970;SDS011;53901;51.466;-2.588;2023-04-16T13:19:25;4.65;;;1.33;;
66970;SDS011;53901;51.466;-2.588;2023-04-16T13:21:50;6.88;;;1.88;;
66970;SDS011;53901;51.466;-2.588;2023-04-16T13:24:16;3.60;;;1.42;;
66970;SDS011;53901;51.466;-2.588;2023-04-16T13:26:41;3.90;;;1.85;;
66970;SDS011;53901;51.466;-2.588;2023-04-16T13:29:07;5.13;;;1.65;;
66970;SDS011;53901;51.466;-2.588;2023-04-16T13:31:33;5.38;;;2.63;;
66970;SDS011;53901;51.466;-2.588;2023-04-16T13:33:58;6.10;;;1.70;;
66970;SDS011;53901;51.466;-2.588;2023-04-16T13:36:24;5.78;;;1.80;;
66970;SDS011;53901;51.466;-2.588;2023-04-16T13:38:49;7.75;;;1.90;;
66970;SDS011;53901;51.466;-2.588;2023-04-16T13:41:15;8.10;;;1.92;;
66970;SDS011;53901;51.466;-2.588;2023-04-16T13:43:40;8.48;;;2.15;;
66970;SDS011;53901;51.466;-2.588;2023-04-16T13:46:06;13.50;;;2.47;;
66970;SDS011;53901;51.466;-2.588;2023-04-16T13:48:31;6.20;;;1.95;;
66970;SDS011;53901;51.466;-2.588;2023-04-16T13:50:56;6.82;;;2.20;;
66970;SDS011;53901;51.466;-2.588;2023-04-16T13:53:22;8.10;;;2.10;;
66970;SDS011;53901;51.466;-2.588;2023-04-16T13:55:48;9.57;;;2.80;;
66970;SDS011;53901;51.466;-2.588;2023-04-16T13:58:15;8.25;;;2.78;;
66970;SDS011;53901;51.466;-2.588;2023-04-16T14:00:40;10.25;;;2.30;;
66970;SDS011;53901;51.466;-2.588;2023-04-16T14:03:06;7.57;;;2.33;;
66970;SDS011;53901;51.466;-2.588;2023-04-16T14:05:32;14.75;;;4.57;;
66970;SDS011;53901;51.466;-2.588;2023-04-16T14:07:57;9.15;;;2.88;;
66970;SDS011;53901;51.466;-2.588;2023-04-16T14:10:22;8.05;;;2.53;;
66970;SDS011;53901;51.466;-2.588;2023-04-16T14:12:48;9.23;;;2.95;;
66970;SDS011;53901;51.466;-2.588;2023-04-16T14:15:13;10.85;;;2.58;;
66970;SDS011;53901;51.466;-2.588;2023-04-16T14:17:39;11.85;;;3.92;;
66970;SDS011;53901;51.466;-2.588;2023-04-16T14:20:11;15.93;;;3.90;;
66970;SDS011;53901;51.466;-2.588;2023-04-16T14:22:37;10.90;;;3.17;;
66970;SDS011;53901;51.466;-2.588;2023-04-16T14:25:03;9.75;;;3.33;;
66970;SDS011;53901;51.466;-2.588;2023-04-16T14:27:30;11.05;;;2.50;;
66970;SDS011;53901;51.466;-2.588;2023-04-16T14:29:56;11.25;;;2.70;;
66970;SDS011;53901;51.466;-2.588;2023-04-16T14:32:21;9.55;;;3.58;;
66970;SDS011;53901;51.466;-2.588;2023-04-16T14:34:47;7.80;;;2.90;;